Time;durP1;ratioP1;P1;durP2;ratioP2;P2;SDS_P1;SDS_P2;PMS_P1;PMS_P2;Temp;Humidity;BMP_temperature;BMP_pressure;BME280_temperature;BME280_humidity;BME280_pressure;Samples;Min_cycle;Max_cycle;Signal;HPM_P1;HPM_P2
2023/05/24 00:01:25;;;;;;;2.10;1.90;;;;;;;;;;5021436;28;20228;-27
2023/05/24 00:03:53;;;;;;;2.83;2.40;;;;;;;;;;5028780;28;20258;-25
2023/05/24 00:06:20;;;;;;;2.40;2.00;;;;;;;;;;5028784;28;20234;-27
2023/05/24 00:08:47;;;;;;;3.60;2.27;;;;;;;;;;5027079;28;20203;-27
2023/05/24 00:11:14;;;;;;;3.17;2.10;;;;;;;;;;5018429;28;20204;-30
2023/05/24 00:13:43;;;;;;;6.03;2.07;;;;;;;;;;5027487;28;20211;-26
2023/05/24 00:16:10;;;;;;;2.43;1.97;;;;;;;;;;5018414;28;20229;-28
2023/05/24 00:18:39;;;;;;;2.50;1.80;;;;;;;;;;5026721;28;20215;-28
2023/05/24 00:21:07;;;;;;;3.93;1.93;;;;;;;;;;5028600;28;20267;-28
2023/05/24 00:23:35;;;;;;;4.77;1.90;;;;;;;;;;5030581;28;20255;-27
2023/05/24 00:26:02;;;;;;;3.80;2.10;;;;;;;;;;5027486;28;20571;-29
2023/05/24 00:28:30;;;;;;;2.20;1.60;;;;;;;;;;5032902;28;20198;-27
2023/05/24 00:30:59;;;;;;;2.50;1.90;;;;;;;;;;5025663;28;20462;-30
2023/05/24 00:33:27;;;;;;;2.57;1.87;;;;;;;;;;5029028;28;20218;-29
2023/05/24 00:35:56;;;;;;;2.73;1.67;;;;;;;;;;5031964;28;20308;-28
2023/05/24 00:38:23;;;;;;;2.97;1.80;;;;;;;;;;5029717;28;20218;-29
2023/05/24 00:40:50;;;;;;;2.30;2.00;;;;;;;;;;5020252;28;20222;-28
2023/05/24 00:43:17;;;;;;;2.43;1.57;;;;;;;;;;5032379;28;20207;-28
2023/05/24 00:45:45;;;;;;;2.40;2.03;;;;;;;;;;5021907;28;20251;-28
2023/05/24 00:48:14;;;;;;;2.73;2.00;;;;;;;;;;5026454;28;20207;-28
2023/05/24 00:50:41;;;;;;;2.97;1.87;;;;;;;;;;5032309;28;20197;-28
2023/05/24 00:53:10;;;;;;;3.60;1.80;;;;;;;;;;5031794;28;20204;-26
2023/05/24 00:55:37;;;;;;;3.40;1.57;;;;;;;;;;5016795;28;20244;-29
2023/05/24 00:58:04;;;;;;;2.10;1.87;;;;;;;;;;5032186;28;20207;-28
2023/05/24 01:00:32;;;;;;;3.27;1.87;;;;;;;;;;5025368;28;20300;-26
2023/05/24 01:02:59;;;;;;;2.70;2.17;;;;;;;;;;5025474;28;20207;-25
2023/05/24 01:05:28;;;;;;;3.40;2.03;;;;;;;;;;5031667;28;20234;-28
2023/05/24 01:08:01;;;;;;;3.23;1.73;;;;;;;;;;5031538;28;20303;-27
2023/05/24 01:10:32;;;;;;;3.70;1.90;;;;;;;;;;5026683;28;20261;-28
2023/05/24 01:13:03;;;;;;;3.17;2.10;;;;;;;;;;5031002;28;20231;-27
2023/05/24 01:15:34;;;;;;;4.83;1.90;;;;;;;;;;5022186;28;20227;-28
2023/05/24 01:18:06;;;;;;;3.53;2.10;;;;;;;;;;5030052;28;20204;-27
2023/05/24 01:20:36;;;;;;;2.63;1.90;;;;;;;;;;5032200;28;20309;-27
2023/05/24 01:23:24;;;;;;;4.40;1.90;;;;;;;;;;5032000;28;20213;-28
2023/05/24 01:26:04;;;;;;;1.73;1.63;;;;;;;;;;5021576;28;20277;-28
2023/05/24 01:28:33;;;;;;;3.40;1.97;;;;;;;;;;5029457;28;20213;-27
2023/05/24 01:31:01;;;;;;;4.13;2.00;;;;;;;;;;5027359;28;20232;-27
2023/05/24 01:33:28;;;;;;;2.90;1.77;;;;;;;;;;5026612;28;20207;-26
2023/05/24 01:35:55;;;;;;;3.43;2.37;;;;;;;;;;5032005;28;20215;-27
2023/05/24 01:38:22;;;;;;;3.07;2.43;;;;;;;;;;5031747;28;20211;-29
2023/05/24 01:40:53;;;;;;;5.93;2.20;;;;;;;;;;5012634;28;20230;-26
2023/05/24 01:43:24;;;;;;;3.97;1.90;;;;;;;;;;5027531;28;20202;-25
2023/05/24 01:45:59;;;;;;;2.00;1.90;;;;;;;;;;5010908;28;20216;-27
2023/05/24 01:48:31;;;;;;;2.17;1.90;;;;;;;;;;5029536;28;20206;-26
2023/05/24 01:50:59;;;;;;;2.77;1.70;;;;;;;;;;5031466;28;20206;-28
2023/05/24 01:53:27;;;;;;;2.67;1.67;;;;;;;;;;5031206;28;20228;-25
2023/05/24 01:55:55;;;;;;;4.47;2.00;;;;;;;;;;5026023;28;20242;-27
2023/05/24 01:58:23;;;;;;;2.50;1.80;;;;;;;;;;5027089;28;20234;-30
2023/05/24 02:00:51;;;;;;;4.40;1.90;;;;;;;;;;5023255;28;20218;-27
2023/05/24 02:03:19;;;;;;;3.00;1.90;;;;;;;;;;5026390;28;20214;-28
2023/05/24 02:05:47;;;;;;;3.53;2.23;;;;;;;;;;5030765;28;20219;-26
2023/05/24 02:08:14;;;;;;;4.40;2.30;;;;;;;;;;5031396;28;20215;-28
2023/05/24 02:10:41;;;;;;;6.27;1.97;;;;;;;;;;5020929;28;20211;-27
2023/05/24 02:13:08;;;;;;;2.90;1.80;;;;;;;;;;5030982;28;20198;-30
2023/05/24 02:15:36;;;;;;;3.00;2.00;;;;;;;;;;5025086;28;20233;-29
2023/05/24 02:18:03;;;;;;;4.67;1.90;;;;;;;;;;5027567;28;20215;-28
2023/05/24 02:20:35;;;;;;;1.97;1.77;;;;;;;;;;5034192;28;20255;-29
2023/05/24 02:23:02;;;;;;;4.03;2.47;;;;;;;;;;5034316;28;20218;-29
2023/05/24 02:25:30;;;;;;;3.27;2.00;;;;;;;;;;5022805;28;20259;-29
2023/05/24 02:27:57;;;;;;;4.53;2.03;;;;;;;;;;5024331;28;20199;-25
2023/05/24 02:30:24;;;;;;;3.57;2.07;;;;;;;;;;5021904;28;20465;-28
2023/05/24 02:32:51;;;;;;;6.70;2.20;;;;;;;;;;5025793;28;20204;-27
2023/05/24 02:35:19;;;;;;;3.63;2.27;;;;;;;;;;5030622;28;20222;-28
2023/05/24 02:37:48;;;;;;;3.37;2.17;;;;;;;;;;5031001;28;20206;-26
2023/05/24 02:40:15;;;;;;;2.07;1.80;;;;;;;;;;5026316;28;20221;-26
2023/05/24 02:42:42;;;;;;;4.07;2.03;;;;;;;;;;5022093;28;20208;-26
2023/05/24 02:45:09;;;;;;;2.83;1.83;;;;;;;;;;5026920;28;20199;-29
2023/05/24 02:47:36;;;;;;;2.63;2.00;;;;;;;;;;5024329;28;20225;-25
2023/05/24 02:50:04;;;;;;;4.13;2.30;;;;;;;;;;5030087;28;20214;-26
2023/05/24 02:52:31;;;;;;;3.67;2.40;;;;;;;;;;5030623;28;20226;-25
2023/05/24 02:55:00;;;;;;;3.83;2.10;;;;;;;;;;5026895;28;20210;-29
2023/05/24 02:57:27;;;;;;;2.90;2.40;;;;;;;;;;5449989;22;20307;-34
2023/05/24 02:59:54;;;;;;;4.37;2.53;;;;;;;;;;5050068;28;20221;-32
2023/05/24 03:02:22;;;;;;;5.93;2.07;;;;;;;;;;5042144;28;20237;-33
2023/05/24 03:04:49;;;;;;;4.00;2.10;;;;;;;;;;5049539;28;20220;-33
2023/05/24 03:07:16;;;;;;;5.97;2.50;;;;;;;;;;5030583;28;20584;-33
2023/05/24 03:09:43;;;;;;;3.60;2.00;;;;;;;;;;5016907;28;20206;-33
2023/05/24 03:12:12;;;;;;;7.43;2.70;;;;;;;;;;5023374;28;20207;-35
2023/05/24 03:14:40;;;;;;;6.77;2.37;;;;;;;;;;5030018;28;20242;-32
2023/05/24 03:19:36;;;;;;;4.70;2.20;;;;;;;;;;5006846;28;20244;-33
2023/05/24 03:22:03;;;;;;;6.30;2.30;;;;;;;;;;5010230;28;20223;-33
2023/05/24 03:24:30;;;;;;;4.83;1.97;;;;;;;;;;5005498;28;20215;-34
2023/05/24 03:26:57;;;;;;;5.33;1.80;;;;;;;;;;5009756;28;20745;-32
2023/05/24 03:29:26;;;;;;;4.17;2.20;;;;;;;;;;5003514;28;20207;-32
2023/05/24 03:31:53;;;;;;;7.00;2.30;;;;;;;;;;5001776;28;20203;-34
2023/05/24 03:34:20;;;;;;;4.40;2.50;;;;;;;;;;5007592;28;20211;-32
2023/05/24 03:36:47;;;;;;;3.63;2.17;;;;;;;;;;5009725;28;20243;-32
2023/05/24 03:39:14;;;;;;;3.70;2.30;;;;;;;;;;5005974;28;20211;-32
2023/05/24 03:41:41;;;;;;;4.80;2.13;;;;;;;;;;5001742;28;20222;-32
2023/05/24 03:44:09;;;;;;;7.33;2.67;;;;;;;;;;4995509;28;20207;-31
2023/05/24 03:46:37;;;;;;;4.10;2.50;;;;;;;;;;4999851;28;20254;-33
2023/05/24 03:49:04;;;;;;;6.43;2.60;;;;;;;;;;4997638;28;20208;-29
2023/05/24 03:51:31;;;;;;;4.47;2.30;;;;;;;;;;4998510;28;20200;-34
2023/05/24 03:53:59;;;;;;;4.63;2.27;;;;;;;;;;4991627;28;20863;-32
2023/05/24 03:56:26;;;;;;;7.50;2.27;;;;;;;;;;4998691;28;20231;-33
2023/05/24 03:58:54;;;;;;;5.33;2.47;;;;;;;;;;5002389;28;20202;-31
2023/05/24 04:01:21;;;;;;;3.93;2.20;;;;;;;;;;5008642;28;20226;-29
2023/05/24 04:03:50;;;;;;;5.07;2.37;;;;;;;;;;5013912;28;20210;-34
2023/05/24 04:06:17;;;;;;;3.97;2.00;;;;;;;;;;5015885;28;20222;-33
2023/05/24 04:08:44;;;;;;;6.37;2.77;;;;;;;;;;5016579;28;20214;-32
2023/05/24 04:11:11;;;;;;;4.40;2.13;;;;;;;;;;5010287;28;20203;-36
2023/05/24 04:13:39;;;;;;;4.30;2.40;;;;;;;;;;5012221;28;20209;-35
2023/05/24 04:16:15;;;;;;;5.70;2.67;;;;;;;;;;5008296;28;20238;-33
2023/05/24 04:18:42;;;;;;;4.57;2.10;;;;;;;;;;5008229;28;20220;-30
2023/05/24 04:21:10;;;;;;;4.60;2.70;;;;;;;;;;5009637;28;20219;-32
2023/05/24 04:23:37;;;;;;;4.57;2.20;;;;;;;;;;5000450;28;20549;-32
2023/05/24 04:26:06;;;;;;;5.20;2.27;;;;;;;;;;5000576;28;20219;-34
2023/05/24 04:28:34;;;;;;;4.83;2.07;;;;;;;;;;5008249;28;20194;-34
2023/05/24 04:31:02;;;;;;;8.50;2.70;;;;;;;;;;5011031;28;20210;-31
2023/05/24 04:33:29;;;;;;;5.77;2.53;;;;;;;;;;4997606;28;20266;-31
2023/05/24 04:35:59;;;;;;;3.20;2.47;;;;;;;;;;5009533;28;20219;-34
2023/05/24 04:38:31;;;;;;;7.30;2.47;;;;;;;;;;4996050;28;20287;-32
2023/05/24 04:40:58;;;;;;;3.67;1.87;;;;;;;;;;4998282;28;20207;-32
2023/05/24 04:43:26;;;;;;;3.97;2.17;;;;;;;;;;4998476;28;20235;-30
2023/05/24 04:45:53;;;;;;;3.57;2.37;;;;;;;;;;5006873;28;20594;-32
2023/05/24 04:48:22;;;;;;;2.77;2.33;;;;;;;;;;5005517;28;20203;-32
2023/05/24 04:50:50;;;;;;;4.83;2.77;;;;;;;;;;5016484;28;20206;-30
2023/05/24 04:53:17;;;;;;;5.73;2.37;;;;;;;;;;5016652;28;20203;-33
2023/05/24 04:55:46;;;;;;;10.43;2.90;;;;;;;;;;5016005;28;20224;-34
2023/05/24 04:58:13;;;;;;;8.57;2.80;;;;;;;;;;5003246;28;20237;-33
2023/05/24 05:00:40;;;;;;;6.83;2.73;;;;;;;;;;5004686;28;20207;-34
2023/05/24 05:03:07;;;;;;;6.57;2.80;;;;;;;;;;5004767;28;20223;-34
2023/05/24 05:05:34;;;;;;;6.10;2.60;;;;;;;;;;5003634;28;20224;-33
2023/05/24 05:08:02;;;;;;;5.73;2.40;;;;;;;;;;5005467;28;20206;-31
2023/05/24 05:10:29;;;;;;;4.00;2.40;;;;;;;;;;5010436;28;20257;-33
2023/05/24 05:12:58;;;;;;;7.00;2.63;;;;;;;;;;5000156;28;20200;-35
2023/05/24 05:15:25;;;;;;;11.07;2.77;;;;;;;;;;4997670;28;20239;-32
2023/05/24 05:17:52;;;;;;;6.90;2.53;;;;;;;;;;5105169;22;20215;-35
2023/05/24 05:20:19;;;;;;;5.07;2.20;;;;;;;;;;5019750;28;20484;-32
2023/05/24 05:22:47;;;;;;;7.40;2.80;;;;;;;;;;5032867;28;20242;-33
2023/05/24 05:25:14;;;;;;;7.07;2.50;;;;;;;;;;5017228;28;20218;-32
2023/05/24 05:27:41;;;;;;;5.67;2.57;;;;;;;;;;5015308;28;20218;-34
2023/05/24 05:30:10;;;;;;;7.03;2.30;;;;;;;;;;5026060;28;20199;-34
2023/05/24 05:32:37;;;;;;;7.20;2.63;;;;;;;;;;5008620;28;20203;-31
2023/05/24 05:35:04;;;;;;;8.83;2.77;;;;;;;;;;5033812;28;20195;-35
2023/05/24 05:37:32;;;;;;;5.07;2.93;;;;;;;;;;5029799;28;20527;-33
2023/05/24 05:39:59;;;;;;;3.60;2.20;;;;;;;;;;5008904;28;20204;-29
2023/05/24 05:42:26;;;;;;;5.70;2.37;;;;;;;;;;5019088;28;20226;-34
2023/05/24 05:44:53;;;;;;;7.60;2.73;;;;;;;;;;5022065;28;20207;-32
2023/05/24 05:47:21;;;;;;;5.30;2.30;;;;;;;;;;5009947;28;20235;-33
2023/05/24 05:49:48;;;;;;;4.30;2.80;;;;;;;;;;5021905;28;20192;-32
2023/05/24 05:52:16;;;;;;;5.10;2.33;;;;;;;;;;5014473;28;20199;-33
2023/05/24 05:54:43;;;;;;;5.03;2.53;;;;;;;;;;5012622;28;20286;-34
2023/05/24 05:57:10;;;;;;;6.70;2.67;;;;;;;;;;5009320;28;20227;-35
2023/05/24 05:59:37;;;;;;;5.60;2.47;;;;;;;;;;5022953;28;20199;-36
2023/05/24 06:02:05;;;;;;;7.77;2.90;;;;;;;;;;5012770;28;20214;-30
2023/05/24 06:04:34;;;;;;;11.33;3.07;;;;;;;;;;5014719;28;20210;-30
2023/05/24 06:07:01;;;;;;;7.57;2.73;;;;;;;;;;5034154;28;20313;-32
2023/05/24 06:09:28;;;;;;;6.30;2.73;;;;;;;;;;4998882;28;20205;-32
2023/05/24 06:11:55;;;;;;;7.43;2.80;;;;;;;;;;5009595;28;20199;-34
2023/05/24 06:14:23;;;;;;;6.07;2.87;;;;;;;;;;5029040;28;20266;-34
2023/05/24 06:17:00;;;;;;;6.17;2.77;;;;;;;;;;5014849;28;20317;-34
2023/05/24 06:19:28;;;;;;;5.30;2.30;;;;;;;;;;5118088;22;20238;-35
2023/05/24 06:21:56;;;;;;;4.63;2.20;;;;;;;;;;5030038;28;20569;-33
2023/05/24 06:24:23;;;;;;;10.77;2.90;;;;;;;;;;5021453;28;20292;-32
2023/05/24 06:26:51;;;;;;;6.67;2.77;;;;;;;;;;5026394;28;20222;-33
2023/05/24 06:29:19;;;;;;;6.43;3.03;;;;;;;;;;5010621;28;20218;-30
2023/05/24 06:31:47;;;;;;;10.43;3.07;;;;;;;;;;5005156;28;20221;-33
2023/05/24 06:34:15;;;;;;;7.13;2.70;;;;;;;;;;5010431;28;20217;-34
2023/05/24 06:36:42;;;;;;;6.33;2.73;;;;;;;;;;5019275;28;20306;-30
2023/05/24 06:39:11;;;;;;;8.60;2.80;;;;;;;;;;5008313;28;20211;-32
2023/05/24 06:41:39;;;;;;;7.40;2.73;;;;;;;;;;5006968;28;20280;-34
2023/05/24 06:44:06;;;;;;;6.43;2.90;;;;;;;;;;5007501;28;20661;-31
2023/05/24 06:46:33;;;;;;;12.30;5.33;;;;;;;;;;4999399;28;20228;-31
2023/05/24 06:49:00;;;;;;;4.73;2.60;;;;;;;;;;5010559;28;20218;-30
2023/05/24 06:51:27;;;;;;;8.07;3.00;;;;;;;;;;5011374;28;20207;-33
2023/05/24 06:53:54;;;;;;;7.87;3.27;;;;;;;;;;5005124;28;20218;-33
2023/05/24 06:56:24;;;;;;;7.83;3.23;;;;;;;;;;5012019;28;20726;-32
2023/05/24 06:58:51;;;;;;;7.60;3.20;;;;;;;;;;5006279;28;20204;-35
2023/05/24 07:01:18;;;;;;;7.43;2.50;;;;;;;;;;5000825;28;20231;-33
2023/05/24 07:03:45;;;;;;;4.70;2.30;;;;;;;;;;5017871;28;20227;-36
2023/05/24 07:06:13;;;;;;;6.17;2.80;;;;;;;;;;5016370;28;20223;-33
2023/05/24 07:08:40;;;;;;;6.53;3.13;;;;;;;;;;5010789;28;20203;-35
2023/05/24 07:11:07;;;;;;;6.07;2.47;;;;;;;;;;4999532;28;20211;-33
2023/05/24 07:13:36;;;;;;;8.27;2.70;;;;;;;;;;5007256;28;20200;-34
2023/05/24 07:16:03;;;;;;;6.87;3.03;;;;;;;;;;5003982;28;20215;-32
2023/05/24 07:18:30;;;;;;;8.67;2.80;;;;;;;;;;5012872;28;20208;-30
2023/05/24 07:20:58;;;;;;;7.87;2.80;;;;;;;;;;5006001;28;20204;-31
2023/05/24 07:23:25;;;;;;;4.10;2.53;;;;;;;;;;5006657;28;20306;-34
2023/05/24 07:25:52;;;;;;;6.90;2.57;;;;;;;;;;5005213;28;20277;-32
2023/05/24 07:28:20;;;;;;;3.17;2.33;;;;;;;;;;5023237;28;20599;-33
2023/05/24 07:30:49;;;;;;;8.07;2.77;;;;;;;;;;5000661;28;20211;-32
2023/05/24 07:33:16;;;;;;;4.70;2.43;;;;;;;;;;5019165;28;20203;-34
2023/05/24 07:35:44;;;;;;;7.63;2.47;;;;;;;;;;5010793;28;20282;-32
2023/05/24 07:38:11;;;;;;;7.13;2.60;;;;;;;;;;5007759;28;20653;-34
2023/05/24 07:40:38;;;;;;;5.27;2.43;;;;;;;;;;4999003;28;20326;-30
2023/05/24 07:43:05;;;;;;;8.07;2.83;;;;;;;;;;5021581;28;20218;-32
2023/05/24 07:45:32;;;;;;;5.00;2.03;;;;;;;;;;5021675;28;20254;-36
2023/05/24 07:48:01;;;;;;;5.60;2.87;;;;;;;;;;5001982;28;20523;-32
2023/05/24 07:50:28;;;;;;;13.00;2.97;;;;;;;;;;5017927;28;20553;-29
2023/05/24 07:52:57;;;;;;;6.40;2.80;;;;;;;;;;5010293;28;20191;-35
2023/05/24 07:55:24;;;;;;;5.20;2.23;;;;;;;;;;5000824;28;20222;-33
2023/05/24 07:57:51;;;;;;;6.30;2.60;;;;;;;;;;5011729;28;20195;-31
2023/05/24 08:00:19;;;;;;;9.40;3.20;;;;;;;;;;4996976;28;20203;-35
2023/05/24 08:02:46;;;;;;;7.27;2.60;;;;;;;;;;5001150;28;20216;-32
2023/05/24 08:05:15;;;;;;;10.80;3.00;;;;;;;;;;4995955;28;20207;-33
2023/05/24 08:07:42;;;;;;;10.47;3.30;;;;;;;;;;4988529;28;20270;-33
2023/05/24 08:10:11;;;;;;;5.40;2.77;;;;;;;;;;4991497;28;20200;-32
2023/05/24 08:12:42;;;;;;;7.63;2.23;;;;;;;;;;5007644;28;20211;-36
2023/05/24 08:15:09;;;;;;;10.13;2.70;;;;;;;;;;5006817;28;20199;-33
2023/05/24 08:17:36;;;;;;;4.57;2.30;;;;;;;;;;5004170;28;20529;-33
2023/05/24 08:20:07;;;;;;;6.53;2.63;;;;;;;;;;5007509;28;20283;-35
2023/05/24 08:22:36;;;;;;;6.67;2.60;;;;;;;;;;5007228;28;20238;-34
2023/05/24 08:25:03;;;;;;;8.07;2.57;;;;;;;;;;4999140;28;20260;-32
2023/05/24 08:27:30;;;;;;;5.43;2.43;;;;;;;;;;5003329;28;20202;-32
2023/05/24 08:29:57;;;;;;;4.77;2.70;;;;;;;;;;5004965;28;20711;-35
2023/05/24 08:32:24;;;;;;;14.10;3.33;;;;;;;;;;4999613;28;20204;-34
2023/05/24 08:34:52;;;;;;;4.07;2.70;;;;;;;;;;5005187;28;20195;-35
2023/05/24 08:37:21;;;;;;;6.17;2.60;;;;;;;;;;5005924;28;20226;-33
2023/05/24 08:39:49;;;;;;;6.53;2.70;;;;;;;;;;5000389;28;20261;-34
2023/05/24 08:42:17;;;;;;;6.33;2.80;;;;;;;;;;5002751;28;20210;-30
2023/05/24 08:44:47;;;;;;;7.27;2.73;;;;;;;;;;5006334;28;20199;-33
2023/05/24 08:47:15;;;;;;;12.27;2.90;;;;;;;;;;5000497;28;20306;-35
2023/05/24 08:49:43;;;;;;;6.23;2.70;;;;;;;;;;5009024;28;20195;-36
2023/05/24 08:52:11;;;;;;;5.30;2.83;;;;;;;;;;5008722;28;20203;-34
2023/05/24 08:54:41;;;;;;;7.23;2.70;;;;;;;;;;5008821;28;20203;-33
2023/05/24 08:57:10;;;;;;;8.17;3.27;;;;;;;;;;5004006;28;20227;-32
2023/05/24 08:59:37;;;;;;;6.23;3.00;;;;;;;;;;5006836;28;20195;-34
2023/05/24 09:02:05;;;;;;;5.80;2.60;;;;;;;;;;5002199;28;20207;-34
2023/05/24 09:04:34;;;;;;;7.87;2.80;;;;;;;;;;5006467;28;20219;-30
2023/05/24 09:07:02;;;;;;;8.47;2.70;;;;;;;;;;5008294;28;20239;-32
2023/05/24 09:09:30;;;;;;;9.77;2.83;;;;;;;;;;5008719;28;20210;-31
2023/05/24 09:11:57;;;;;;;10.63;2.67;;;;;;;;;;5000733;28;20437;-35
2023/05/24 09:14:26;;;;;;;7.77;2.53;;;;;;;;;;5007626;28;20282;-35
2023/05/24 09:16:54;;;;;;;7.60;2.67;;;;;;;;;;5002611;28;20219;-33
2023/05/24 09:19:21;;;;;;;5.97;2.43;;;;;;;;;;5006859;28;20223;-33
2023/05/24 09:21:49;;;;;;;6.30;2.47;;;;;;;;;;5007332;28;20207;-32
2023/05/24 09:24:17;;;;;;;9.97;3.10;;;;;;;;;;5000356;28;20318;-34
2023/05/24 09:26:44;;;;;;;5.60;2.57;;;;;;;;;;5004540;28;20219;-32
2023/05/24 09:29:11;;;;;;;6.87;3.00;;;;;;;;;;5008235;28;20203;-34
2023/05/24 09:31:40;;;;;;;5.03;2.67;;;;;;;;;;5003772;28;20203;-31
2023/05/24 09:34:10;;;;;;;9.73;2.73;;;;;;;;;;5007653;28;20192;-36
2023/05/24 09:36:41;;;;;;;6.40;2.97;;;;;;;;;;5006243;28;20215;-32
2023/05/24 09:39:10;;;;;;;7.60;2.30;;;;;;;;;;5003332;28;20243;-31
2023/05/24 09:41:37;;;;;;;5.53;2.50;;;;;;;;;;5002802;28;20203;-33
2023/05/24 09:44:06;;;;;;;8.37;2.43;;;;;;;;;;5007677;28;20230;-32
2023/05/24 09:46:38;;;;;;;7.70;2.67;;;;;;;;;;5002041;28;20499;-31
2023/05/24 09:49:07;;;;;;;5.43;2.53;;;;;;;;;;5007550;28;20204;-36
2023/05/24 09:51:37;;;;;;;7.50;2.53;;;;;;;;;;5006831;28;20294;-33
2023/05/24 09:54:04;;;;;;;8.30;2.73;;;;;;;;;;5003744;28;20245;-31
2023/05/24 09:56:33;;;;;;;9.17;2.63;;;;;;;;;;5007195;28;20223;-32
2023/05/24 09:59:06;;;;;;;5.23;2.73;;;;;;;;;;5006834;28;20195;-31
2023/05/24 10:01:34;;;;;;;7.20;2.77;;;;;;;;;;5000300;28;20226;-32
2023/05/24 10:04:05;;;;;;;9.13;2.47;;;;;;;;;;5004441;28;20219;-32
2023/05/24 10:06:36;;;;;;;7.33;2.73;;;;;;;;;;5007655;28;20266;-30
2023/05/24 10:09:05;;;;;;;7.87;2.50;;;;;;;;;;5001501;28;20214;-32
2023/05/24 10:11:33;;;;;;;6.10;2.53;;;;;;;;;;5006235;28;20210;-32
2023/05/24 10:14:00;;;;;;;7.87;2.70;;;;;;;;;;5006709;28;20196;-33
2023/05/24 10:16:27;;;;;;;9.03;2.83;;;;;;;;;;5002645;28;20223;-35
2023/05/24 10:18:55;;;;;;;6.97;2.73;;;;;;;;;;5009289;28;20213;-33
2023/05/24 10:21:24;;;;;;;10.90;2.63;;;;;;;;;;5006998;28;20206;-35
2023/05/24 10:23:56;;;;;;;8.60;2.67;;;;;;;;;;5003159;28;20227;-33
2023/05/24 10:26:25;;;;;;;9.63;2.93;;;;;;;;;;5006513;28;20219;-33
2023/05/24 10:28:53;;;;;;;11.83;3.73;;;;;;;;;;5006740;28;20546;-33
2023/05/24 10:31:25;;;;;;;9.40;4.23;;;;;;;;;;5005459;28;20231;-31
2023/05/24 10:33:52;;;;;;;6.77;2.90;;;;;;;;;;5011102;28;20227;-32
2023/05/24 10:36:20;;;;;;;10.07;3.27;;;;;;;;;;5010207;28;20267;-33
2023/05/24 10:38:47;;;;;;;6.73;3.03;;;;;;;;;;5001930;28;20223;-33
2023/05/24 10:41:15;;;;;;;9.63;3.43;;;;;;;;;;5005006;28;20212;-30
2023/05/24 10:43:45;;;;;;;4.67;2.50;;;;;;;;;;5006857;28;20222;-34
2023/05/24 10:46:15;;;;;;;8.23;2.60;;;;;;;;;;4998198;28;20228;-33
2023/05/24 10:48:42;;;;;;;6.90;3.10;;;;;;;;;;5006455;28;20291;-30
2023/05/24 10:51:28;;;;;;;10.40;3.07;;;;;;;;;;5006416;28;20194;-32
2023/05/24 10:53:57;;;;;;;7.23;2.40;;;;;;;;;;4999345;28;20206;-35
2023/05/24 10:56:27;;;;;;;9.67;3.13;;;;;;;;;;5006516;28;20223;-35
2023/05/24 10:59:01;;;;;;;10.40;3.07;;;;;;;;;;5004831;28;20195;-32
2023/05/24 11:01:30;;;;;;;11.70;3.80;;;;;;;;;;5001112;28;20203;-33
2023/05/24 11:04:07;;;;;;;10.10;3.00;;;;;;;;;;5002704;28;20222;-33
2023/05/24 11:06:48;;;;;;;14.97;3.60;;;;;;;;;;5006739;28;20223;-33
2023/05/24 11:09:15;;;;;;;11.50;3.00;;;;;;;;;;5003481;28;20211;-34
2023/05/24 11:11:47;;;;;;;8.60;3.50;;;;;;;;;;4996784;28;20646;-34
2023/05/24 11:14:15;;;;;;;12.07;3.93;;;;;;;;;;5004988;28;20265;-34
2023/05/24 11:16:45;;;;;;;10.47;3.20;;;;;;;;;;4997588;28;20220;-31
2023/05/24 11:19:13;;;;;;;6.13;2.50;;;;;;;;;;5004916;28;20641;-34
2023/05/24 11:21:40;;;;;;;11.83;3.80;;;;;;;;;;5005568;28;20203;-33
2023/05/24 11:24:08;;;;;;;8.40;2.80;;;;;;;;;;4999868;28;20223;-36
2023/05/24 11:26:35;;;;;;;6.37;2.80;;;;;;;;;;5001284;28;20481;-33
2023/05/24 11:29:05;;;;;;;9.77;2.87;;;;;;;;;;5006511;28;20210;-35
2023/05/24 11:31:32;;;;;;;8.33;2.83;;;;;;;;;;4999542;28;20638;-32
2023/05/24 11:34:01;;;;;;;5.13;2.50;;;;;;;;;;5009131;28;20191;-30
2023/05/24 11:36:28;;;;;;;5.77;2.47;;;;;;;;;;5029708;28;20222;-31
2023/05/24 11:38:56;;;;;;;8.07;3.33;;;;;;;;;;5025381;28;20198;-33
2023/05/24 11:41:23;;;;;;;5.77;2.80;;;;;;;;;;5019821;28;20225;-32
2023/05/24 11:43:50;;;;;;;8.73;2.87;;;;;;;;;;5011606;28;20223;-33
2023/05/24 11:46:19;;;;;;;5.67;2.47;;;;;;;;;;5006387;28;20218;-32
2023/05/24 11:48:55;;;;;;;5.20;2.90;;;;;;;;;;5008410;28;20203;-36
2023/05/24 11:51:26;;;;;;;7.97;3.77;;;;;;;;;;5004539;28;20198;-33
2023/05/24 11:53:53;;;;;;;9.87;3.30;;;;;;;;;;5009405;28;20238;-33
2023/05/24 11:56:20;;;;;;;6.03;2.80;;;;;;;;;;5009128;28;20214;-33
2023/05/24 11:58:49;;;;;;;9.63;3.10;;;;;;;;;;5006163;28;20222;-31
2023/05/24 12:01:26;;;;;;;6.67;3.10;;;;;;;;;;5001390;28;20203;-34
2023/05/24 12:03:53;;;;;;;4.33;2.63;;;;;;;;;;5009265;28;20246;-30
2023/05/24 12:06:20;;;;;;;7.93;2.60;;;;;;;;;;5009082;28;20230;-35
2023/05/24 12:08:48;;;;;;;5.93;2.87;;;;;;;;;;5002813;28;20214;-32
2023/05/24 12:11:16;;;;;;;8.37;2.57;;;;;;;;;;5003204;28;20199;-36
2023/05/24 12:13:43;;;;;;;11.00;2.77;;;;;;;;;;5008734;28;20716;-34
2023/05/24 12:16:13;;;;;;;4.57;2.23;;;;;;;;;;5003416;28;20226;-36
2023/05/24 12:18:42;;;;;;;4.73;2.67;;;;;;;;;;5009174;28;20210;-33
2023/05/24 12:21:11;;;;;;;7.77;2.80;;;;;;;;;;5011871;28;20199;-34
2023/05/24 12:23:38;;;;;;;8.00;2.93;;;;;;;;;;5006028;28;20215;-34
2023/05/24 12:26:05;;;;;;;7.77;3.07;;;;;;;;;;5012094;28;20219;-29
2023/05/24 12:28:35;;;;;;;7.03;3.20;;;;;;;;;;5012870;28;20198;-32
2023/05/24 12:31:02;;;;;;;8.30;3.23;;;;;;;;;;5008170;28;20239;-33
2023/05/24 12:33:30;;;;;;;6.83;2.27;;;;;;;;;;5007712;28;20218;-31
2023/05/24 12:35:59;;;;;;;10.90;2.87;;;;;;;;;;5012453;28;20223;-35
2023/05/24 12:38:26;;;;;;;4.83;2.73;;;;;;;;;;5009206;28;20196;-32
2023/05/24 12:40:53;;;;;;;7.50;3.23;;;;;;;;;;5008349;28;20206;-33
2023/05/24 12:43:21;;;;;;;5.60;2.53;;;;;;;;;;5012899;28;20207;-30
2023/05/24 12:45:48;;;;;;;9.30;3.67;;;;;;;;;;5006462;28;20226;-30
2023/05/24 12:48:15;;;;;;;7.20;2.70;;;;;;;;;;5008618;28;20204;-34
2023/05/24 12:50:42;;;;;;;6.30;2.60;;;;;;;;;;5012366;28;20203;-34
2023/05/24 12:53:11;;;;;;;6.17;2.63;;;;;;;;;;5012378;28;20215;-32
2023/05/24 12:55:38;;;;;;;8.20;3.00;;;;;;;;;;5009960;28;20669;-35
2023/05/24 12:58:08;;;;;;;4.87;2.70;;;;;;;;;;5016175;28;20199;-36
2023/05/24 13:00:35;;;;;;;8.63;3.33;;;;;;;;;;5008871;28;20246;-32
2023/05/24 13:03:02;;;;;;;5.60;2.50;;;;;;;;;;5009744;28;20226;-34
2023/05/24 13:05:29;;;;;;;11.90;3.17;;;;;;;;;;5014705;28;20221;-32
2023/05/24 13:07:57;;;;;;;5.80;2.90;;;;;;;;;;5009884;28;20224;-32
2023/05/24 13:10:26;;;;;;;4.63;2.10;;;;;;;;;;5004902;28;20209;-34
2023/05/24 13:12:54;;;;;;;6.73;2.73;;;;;;;;;;5009404;28;20429;-33
2023/05/24 13:15:22;;;;;;;8.57;2.97;;;;;;;;;;5008242;28;20279;-35
2023/05/24 13:17:50;;;;;;;3.90;2.30;;;;;;;;;;5010885;28;20220;-36
2023/05/24 13:20:20;;;;;;;4.00;2.10;;;;;;;;;;5012376;28;20208;-31
2023/05/24 13:22:48;;;;;;;4.23;2.23;;;;;;;;;;5011124;28;20568;-33
2023/05/24 13:25:15;;;;;;;5.80;2.90;;;;;;;;;;5003689;28;20594;-34
2023/05/24 13:28:00;;;;;;;5.20;2.97;;;;;;;;;;5008342;28;20208;-33
2023/05/24 13:30:27;;;;;;;5.10;2.60;;;;;;;;;;5022387;28;20218;-31
2023/05/24 13:32:54;;;;;;;4.80;2.57;;;;;;;;;;5015027;28;20204;-35
2023/05/24 13:35:22;;;;;;;4.83;3.20;;;;;;;;;;5014290;28;20244;-34
2023/05/24 13:37:49;;;;;;;4.27;2.20;;;;;;;;;;5013248;28;20189;-32
2023/05/24 13:40:17;;;;;;;4.53;2.30;;;;;;;;;;5011183;28;20200;-33
2023/05/24 13:42:44;;;;;;;6.47;2.30;;;;;;;;;;5011628;28;20195;-34
2023/05/24 13:45:13;;;;;;;7.37;2.53;;;;;;;;;;5005953;28;20220;-33
2023/05/24 13:47:40;;;;;;;6.40;2.67;;;;;;;;;;4999721;28;20204;-31
2023/05/24 13:50:07;;;;;;;6.63;2.90;;;;;;;;;;5008335;28;20217;-32
2023/05/24 13:52:35;;;;;;;4.47;2.63;;;;;;;;;;5011686;28;20200;-32
2023/05/24 13:55:04;;;;;;;5.67;2.40;;;;;;;;;;5011173;28;20219;-32
2023/05/24 13:57:31;;;;;;;5.63;2.80;;;;;;;;;;5006919;28;20292;-31
2023/05/24 13:59:59;;;;;;;4.20;2.17;;;;;;;;;;5007071;28;20206;-33
2023/05/24 14:02:27;;;;;;;8.03;3.13;;;;;;;;;;5004394;28;20295;-31
2023/05/24 14:04:54;;;;;;;4.50;2.53;;;;;;;;;;5011176;28;20222;-33
2023/05/24 14:07:22;;;;;;;7.50;2.83;;;;;;;;;;5011405;28;20201;-35
2023/05/24 14:09:49;;;;;;;6.47;2.40;;;;;;;;;;5004483;28;20840;-35
2023/05/24 14:12:17;;;;;;;5.43;2.27;;;;;;;;;;5008102;28;20214;-30
2023/05/24 14:14:45;;;;;;;8.60;2.50;;;;;;;;;;5011066;28;20200;-31
2023/05/24 14:17:12;;;;;;;7.53;2.63;;;;;;;;;;5004631;28;20314;-33
2023/05/24 14:19:40;;;;;;;2.50;1.93;;;;;;;;;;5012699;28;20201;-32
2023/05/24 14:22:07;;;;;;;3.73;2.30;;;;;;;;;;5010083;28;20640;-31
2023/05/24 14:24:35;;;;;;;4.63;2.00;;;;;;;;;;5005648;28;20215;-35
2023/05/24 14:27:03;;;;;;;3.10;2.10;;;;;;;;;;5011401;28;20754;-35
2023/05/24 14:29:30;;;;;;;6.63;1.93;;;;;;;;;;5012400;28;20217;-33
2023/05/24 14:31:57;;;;;;;5.70;2.33;;;;;;;;;;5007689;28;20207;-32
2023/05/24 14:34:24;;;;;;;3.40;2.30;;;;;;;;;;5010005;28;20204;-35
2023/05/24 14:36:53;;;;;;;6.20;2.77;;;;;;;;;;5017771;28;20219;-34
2023/05/24 14:39:20;;;;;;;6.57;2.60;;;;;;;;;;5005793;28;20205;-33
2023/05/24 14:41:47;;;;;;;3.90;2.00;;;;;;;;;;5011697;28;20215;-32
2023/05/24 14:44:14;;;;;;;4.47;1.90;;;;;;;;;;5012836;28;20646;-33
2023/05/24 14:46:41;;;;;;;9.90;1.97;;;;;;;;;;5009573;28;20224;-34
2023/05/24 14:49:08;;;;;;;5.37;2.40;;;;;;;;;;5018533;28;20205;-32
2023/05/24 14:51:36;;;;;;;3.90;1.87;;;;;;;;;;5010033;28;20200;-31